Time;durP1;ratioP1;P1;durP2;ratioP2;P2;SDS_P1;SDS_P2;PMS_P1;PMS_P2;Temp;Humidity;BMP_temperature;BMP_pressure;BME280_temperature;BME280_humidity;BME280_pressure;Samples;Min_cycle;Max_cycle;Signal;HPM_P1;HPM_P2
2023/03/06 00:00:41;;;;;;;12.47;7.60;;;3.60;99.90;;;;;;5072667;28;20032;-49
2023/03/06 00:03:07;;;;;;;14.27;8.37;;;3.60;99.90;;;;;;5072973;28;20036;-53
2023/03/06 00:05:33;;;;;;;13.57;9.03;;;3.50;99.90;;;;;;5072596;28;20028;-51
2023/03/06 00:07:59;;;;;;;13.73;8.17;;;3.60;99.90;;;;;;5072427;28;20611;-53
2023/03/06 00:10:27;;;;;;;14.07;8.50;;;3.50;99.90;;;;;;5072433;28;20489;-51
2023/03/06 00:12:56;;;;;;;15.05;7.85;;;3.50;99.90;;;;;;5072367;28;20081;-46
2023/03/06 00:15:24;;;;;;;13.38;7.63;;;3.50;99.90;;;;;;5072024;28;20063;-51
2023/03/06 00:17:50;;;;;;;13.90;7.57;;;3.50;99.90;;;;;;5072140;28;20033;-50
2023/03/06 00:20:16;;;;;;;14.53;7.80;;;3.50;99.90;;;;;;5072297;28;20028;-50
2023/03/06 00:22:43;;;;;;;13.03;7.50;;;3.50;99.90;;;;;;5072131;28;20036;-51
2023/03/06 00:25:13;;;;;;;15.70;8.40;;;3.50;99.90;;;;;;5071882;28;20037;-49
2023/03/06 00:27:39;;;;;;;17.27;7.77;;;3.50;99.90;;;;;;5072207;28;20032;-49
2023/03/06 00:30:05;;;;;;;12.37;7.23;;;3.60;99.90;;;;;;5054013;28;20396;-49
2023/03/06 00:32:31;;;;;;;14.33;8.53;;;3.50;99.90;;;;;;5071894;28;20024;-46
2023/03/06 00:34:57;;;;;;;12.03;7.70;;;3.50;99.90;;;;;;5053559;28;20051;-47
2023/03/06 00:37:24;;;;;;;13.40;8.00;;;3.50;99.90;;;;;;5071626;28;20051;-47
2023/03/06 00:39:49;;;;;;;14.60;8.37;;;3.50;99.90;;;;;;5071780;28;20024;-46
2023/03/06 00:42:16;;;;;;;15.93;8.63;;;3.50;99.90;;;;;;5071636;28;20025;-46
2023/03/06 00:44:42;;;;;;;18.27;9.00;;;3.50;99.90;;;;;;5053536;28;20074;-47
2023/03/06 00:47:08;;;;;;;15.77;9.40;;;3.50;99.90;;;;;;5071386;28;20036;-46
2023/03/06 00:49:34;;;;;;;15.37;9.53;;;3.50;99.90;;;;;;5053555;28;20028;-49
2023/03/06 00:51:59;;;;;;;14.17;9.03;;;3.50;99.90;;;;;;5071990;28;20104;-47
2023/03/06 00:54:25;;;;;;;13.97;8.60;;;3.50;99.90;;;;;;5053314;28;20488;-47
2023/03/06 00:56:51;;;;;;;15.87;10.00;;;3.50;99.90;;;;;;5071167;28;20778;-46
2023/03/06 00:59:17;;;;;;;16.23;9.50;;;3.50;99.90;;;;;;5053700;28;20345;-48
2023/03/06 01:01:44;;;;;;;15.63;9.97;;;3.50;99.90;;;;;;5071338;28;20063;-51
2023/03/06 01:04:11;;;;;;;18.00;10.70;;;3.50;99.90;;;;;;5071160;28;20077;-51
2023/03/06 01:06:37;;;;;;;19.53;11.33;;;3.40;99.90;;;;;;5053063;28;20028;-51
2023/03/06 01:09:04;;;;;;;19.73;11.37;;;3.40;99.90;;;;;;5071002;28;20021;-49
2023/03/06 01:11:30;;;;;;;18.80;11.37;;;3.40;99.90;;;;;;5071387;28;20392;-51
2023/03/06 01:13:56;;;;;;;20.50;12.03;;;3.40;99.90;;;;;;5070916;28;20039;-47
2023/03/06 01:16:22;;;;;;;19.43;11.63;;;3.40;99.90;;;;;;5053109;28;20062;-48
2023/03/06 01:18:49;;;;;;;20.67;11.87;;;3.40;99.90;;;;;;5070981;28;20400;-48
2023/03/06 01:21:15;;;;;;;20.73;12.27;;;3.40;99.90;;;;;;5052976;28;20040;-48
2023/03/06 01:23:41;;;;;;;25.87;12.97;;;3.40;99.90;;;;;;5070625;28;20028;-50
2023/03/06 01:26:07;;;;;;;23.13;13.40;;;3.40;99.90;;;;;;5052629;28;20028;-49
2023/03/06 01:28:33;;;;;;;20.83;12.93;;;3.40;99.90;;;;;;5052686;28;20123;-48
2023/03/06 01:31:01;;;;;;;25.10;12.67;;;3.40;99.90;;;;;;5070829;28;20424;-51
2023/03/06 01:33:27;;;;;;;27.80;13.90;;;3.40;99.90;;;;;;5070741;28;20025;-48
2023/03/06 01:35:52;;;;;;;28.00;14.30;;;3.40;99.90;;;;;;5070797;28;20389;-46
2023/03/06 01:38:18;;;;;;;28.13;15.03;;;3.40;99.90;;;;;;5052426;28;20032;-52
2023/03/06 01:40:44;;;;;;;27.13;14.67;;;3.40;99.90;;;;;;5070643;28;20044;-51
2023/03/06 01:43:29;;;;;;;29.87;15.33;;;3.40;99.90;;;;;;5070640;28;20028;-47
2023/03/06 01:46:23;;;;;;;28.47;15.63;;;3.40;99.90;;;;;;5070576;28;20040;-50
2023/03/06 01:48:53;;;;;;;28.50;15.73;;;3.30;99.90;;;;;;5052697;28;20040;-51
2023/03/06 01:51:20;;;;;;;29.13;16.10;;;3.30;99.90;;;;;;5070826;28;20039;-49
2023/03/06 01:53:48;;;;;;;29.87;16.00;;;3.40;99.90;;;;;;5052362;28;20050;-47
2023/03/06 01:56:14;;;;;;;28.07;15.57;;;3.30;99.90;;;;;;5070366;28;20124;-50
2023/03/06 01:58:42;;;;;;;28.33;16.67;;;3.40;99.90;;;;;;5052302;28;20094;-49
2023/03/06 02:01:10;;;;;;;31.57;16.60;;;3.30;99.90;;;;;;5052295;28;20063;-49
2023/03/06 02:03:37;;;;;;;27.97;16.07;;;3.30;99.90;;;;;;5070224;28;20550;-48
2023/03/06 02:06:05;;;;;;;29.20;16.48;;;3.30;99.90;;;;;;5052437;28;20497;-47
2023/03/06 02:08:31;;;;;;;27.13;15.13;;;3.30;99.90;;;;;;5052189;28;20095;-48
2023/03/06 02:11:06;;;;;;;30.87;16.60;;;3.30;99.90;;;;;;5070272;28;20097;-47
2023/03/06 02:13:33;;;;;;;32.47;17.03;;;3.20;99.90;;;;;;5070230;28;20098;-49
2023/03/06 02:15:59;;;;;;;28.97;16.70;;;3.30;99.90;;;;;;5070175;28;20029;-49
2023/03/06 02:18:24;;;;;;;31.50;17.93;;;3.30;99.90;;;;;;5070074;28;20086;-48
2023/03/06 02:20:57;;;;;;;33.13;16.43;;;3.30;99.90;;;;;;5070206;28;20400;-52
2023/03/06 02:23:35;;;;;;;33.30;18.00;;;3.30;99.90;;;;;;5052134;28;20060;-46
2023/03/06 02:26:03;;;;;;;37.20;18.45;;;3.30;99.90;;;;;;5052449;28;20101;-50
2023/03/06 02:28:29;;;;;;;30.67;18.13;;;3.30;99.90;;;;;;5052187;28;20063;-50
2023/03/06 02:30:56;;;;;;;30.87;17.83;;;3.30;99.90;;;;;;5052111;28;20484;-49
2023/03/06 02:33:24;;;;;;;34.67;18.83;;;3.30;99.90;;;;;;5051977;28;20090;-48
2023/03/06 02:35:56;;;;;;;34.97;18.48;;;3.30;99.90;;;;;;5070435;28;20426;-52
2023/03/06 02:38:27;;;;;;;34.67;18.67;;;3.40;99.90;;;;;;5071229;28;20040;-47
2023/03/06 02:40:53;;;;;;;34.20;18.77;;;3.30;99.90;;;;;;5055905;28;20035;-46
2023/03/06 02:43:24;;;;;;;33.90;18.10;;;3.30;99.90;;;;;;5055794;28;20035;-46
2023/03/06 02:45:50;;;;;;;34.87;18.20;;;3.30;99.90;;;;;;5056042;28;20545;-48
2023/03/06 02:48:17;;;;;;;35.37;18.10;;;3.30;99.90;;;;;;5055632;28;20029;-48
2023/03/06 02:50:46;;;;;;;32.83;17.97;;;3.30;99.90;;;;;;5055616;28;20032;-46
2023/03/06 02:53:14;;;;;;;32.30;17.70;;;3.30;99.90;;;;;;5055551;28;20028;-51
2023/03/06 02:55:41;;;;;;;30.80;16.53;;;3.20;99.90;;;;;;5073671;28;20115;-53
2023/03/06 02:58:08;;;;;;;30.07;16.43;;;3.20;99.90;;;;;;5055507;28;20033;-50
2023/03/06 03:00:34;;;;;;;27.57;16.63;;;3.20;99.90;;;;;;5055799;28;20492;-50
2023/03/06 03:03:03;;;;;;;26.50;14.60;;;3.20;99.90;;;;;;5055543;28;20032;-49
2023/03/06 03:05:30;;;;;;;24.67;13.67;;;3.20;99.90;;;;;;5073322;28;20499;-50
2023/03/06 03:08:01;;;;;;;22.03;12.90;;;3.10;99.90;;;;;;5073206;28;20484;-49
2023/03/06 03:10:28;;;;;;;19.20;11.23;;;3.00;99.90;;;;;;5055512;28;20033;-49
2023/03/06 03:12:54;;;;;;;20.40;11.10;;;3.00;99.90;;;;;;5055322;28;20043;-52
2023/03/06 03:15:20;;;;;;;22.07;11.83;;;3.00;99.90;;;;;;5055207;28;20051;-49
2023/03/06 03:17:45;;;;;;;21.73;11.00;;;3.00;99.90;;;;;;5055102;28;20484;-48
2023/03/06 03:20:14;;;;;;;19.77;10.97;;;3.00;99.90;;;;;;5073248;28;20551;-51
2023/03/06 03:22:40;;;;;;;19.57;10.57;;;3.00;99.90;;;;;;5072501;28;20105;-48
2023/03/06 03:25:06;;;;;;;20.20;11.80;;;2.90;99.90;;;;;;5072939;28;20070;-49
2023/03/06 03:27:32;;;;;;;20.37;11.93;;;3.00;99.90;;;;;;5073061;28;20366;-51
2023/03/06 03:29:59;;;;;;;24.00;13.07;;;2.90;99.90;;;;;;5055000;28;20105;-48
2023/03/06 03:32:26;;;;;;;24.33;12.87;;;2.90;99.90;;;;;;5055108;28;20063;-51
2023/03/06 03:34:54;;;;;;;23.03;13.13;;;2.90;99.90;;;;;;5072680;28;20024;-49
2023/03/06 03:37:20;;;;;;;25.63;14.00;;;2.80;99.90;;;;;;5054802;28;20081;-47
2023/03/06 03:39:45;;;;;;;26.27;14.57;;;2.70;99.90;;;;;;5072960;28;20492;-49
2023/03/06 03:42:11;;;;;;;27.57;14.07;;;2.70;99.90;;;;;;5054827;28;20025;-47
2023/03/06 03:44:37;;;;;;;28.23;15.10;;;2.70;99.90;;;;;;5054664;28;20029;-50
2023/03/06 03:47:03;;;;;;;27.70;15.53;;;2.70;99.90;;;;;;5054506;28;20033;-47
2023/03/06 03:49:30;;;;;;;29.10;15.77;;;2.70;99.90;;;;;;5054262;28;20028;-46
2023/03/06 03:51:57;;;;;;;28.90;15.50;;;2.70;99.90;;;;;;5054755;28;20386;-46
2023/03/06 03:54:24;;;;;;;27.63;14.93;;;2.70;99.90;;;;;;5054443;28;20028;-49
2023/03/06 03:56:52;;;;;;;33.63;16.83;;;2.80;99.90;;;;;;5054612;28;20074;-49
2023/03/06 03:59:23;;;;;;;31.10;15.77;;;2.80;99.90;;;;;;5054657;28;20024;-47
2023/03/06 04:02:03;;;;;;;30.37;16.33;;;2.80;99.90;;;;;;5054381;28;20032;-52
2023/03/06 04:04:30;;;;;;;33.13;17.30;;;2.80;99.90;;;;;;5054316;28;20370;-48
2023/03/06 04:06:56;;;;;;;33.53;16.60;;;2.90;99.90;;;;;;5054099;28;20051;-48
2023/03/06 04:09:23;;;;;;;29.37;16.87;;;2.90;99.90;;;;;;5054425;28;20565;-49
2023/03/06 04:11:49;;;;;;;34.50;17.57;;;3.00;99.90;;;;;;5054434;28;20120;-51
2023/03/06 04:14:15;;;;;;;32.73;16.80;;;3.00;99.90;;;;;;5054171;28;20303;-47
2023/03/06 04:16:42;;;;;;;34.53;17.10;;;3.00;99.90;;;;;;5071843;28;20025;-51
2023/03/06 04:19:08;;;;;;;33.37;17.83;;;3.00;99.90;;;;;;5054078;28;20534;-48
2023/03/06 04:21:34;;;;;;;36.10;16.80;;;3.00;99.90;;;;;;5054046;28;20033;-51
2023/03/06 04:24:00;;;;;;;38.30;18.43;;;3.00;99.90;;;;;;5053877;28;20676;-51
2023/03/06 04:26:25;;;;;;;31.87;17.50;;;3.00;99.90;;;;;;5053840;28;20029;-47
2023/03/06 04:28:51;;;;;;;32.80;17.10;;;3.00;99.90;;;;;;5053991;28;20032;-52
2023/03/06 04:31:17;;;;;;;33.43;17.27;;;3.00;99.90;;;;;;5054033;28;20063;-50
2023/03/06 04:33:43;;;;;;;35.40;17.63;;;3.00;99.90;;;;;;5071725;28;20481;-48
2023/03/06 04:36:24;;;;;;;34.10;18.13;;;2.90;99.90;;;;;;5071951;28;20032;-47
2023/03/06 04:38:50;;;;;;;33.40;16.53;;;2.90;99.90;;;;;;5053842;28;20044;-50
2023/03/06 04:41:16;;;;;;;33.13;16.73;;;2.90;99.90;;;;;;5071866;28;20378;-48
2023/03/06 04:43:41;;;;;;;32.97;18.57;;;3.00;99.90;;;;;;5071522;28;20032;-47
2023/03/06 04:46:10;;;;;;;32.33;16.83;;;2.90;99.90;;;;;;5082955;22;20205;-53
2023/03/06 04:48:35;;;;;;;31.77;17.00;;;3.00;99.90;;;;;;5071292;28;20024;-53
2023/03/06 04:51:01;;;;;;;29.67;16.33;;;2.90;99.90;;;;;;5071652;28;20481;-53
2023/03/06 04:53:27;;;;;;;29.80;16.10;;;2.90;99.90;;;;;;5071511;28;20483;-50
2023/03/06 04:55:52;;;;;;;33.93;16.40;;;2.90;99.90;;;;;;5071504;28;20499;-52
2023/03/06 04:58:19;;;;;;;30.60;16.30;;;2.90;99.90;;;;;;5071134;28;20048;-52
2023/03/06 05:00:45;;;;;;;34.63;17.00;;;2.80;99.90;;;;;;5070900;28;20032;-53
2023/03/06 05:03:12;;;;;;;32.03;16.27;;;2.80;99.90;;;;;;5071475;28;20029;-53
2023/03/06 05:05:38;;;;;;;29.23;15.67;;;2.80;99.90;;;;;;5071026;28;20029;-52
2023/03/06 05:08:05;;;;;;;30.73;16.80;;;2.80;99.90;;;;;;5071137;28;20027;-53
2023/03/06 05:10:30;;;;;;;30.13;16.07;;;2.80;99.90;;;;;;5071224;28;20024;-53
2023/03/06 05:12:56;;;;;;;29.50;16.27;;;2.80;99.90;;;;;;5071034;28;20032;-54
2023/03/06 05:15:22;;;;;;;31.40;17.47;;;2.70;99.90;;;;;;5070878;28;20035;-52
2023/03/06 05:17:47;;;;;;;30.60;16.30;;;2.70;99.90;;;;;;5071023;28;20028;-52
2023/03/06 05:20:14;;;;;;;29.10;16.37;;;2.60;99.90;;;;;;5071184;28;20542;-52
2023/03/06 05:22:41;;;;;;;32.00;16.00;;;2.60;99.90;;;;;;5071086;28;20029;-54
2023/03/06 05:25:07;;;;;;;32.77;17.07;;;2.50;99.90;;;;;;5070876;28;20025;-53
2023/03/06 05:27:33;;;;;;;31.23;16.47;;;2.50;99.90;;;;;;5070642;28;20429;-53
2023/03/06 05:29:59;;;;;;;31.37;16.37;;;2.50;99.90;;;;;;5070923;28;20029;-54
2023/03/06 05:32:25;;;;;;;31.40;16.93;;;2.50;99.90;;;;;;5070815;28;20035;-52
2023/03/06 05:34:50;;;;;;;32.60;17.07;;;2.50;99.90;;;;;;5070619;28;20037;-52
2023/03/06 05:37:16;;;;;;;37.17;17.50;;;2.50;99.90;;;;;;5070641;28;20116;-53
2023/03/06 05:39:42;;;;;;;30.93;16.60;;;2.50;99.90;;;;;;5070783;28;20094;-49
2023/03/06 05:42:08;;;;;;;34.43;16.77;;;2.50;99.90;;;;;;5070596;28;20063;-50
2023/03/06 05:44:34;;;;;;;34.93;17.60;;;2.50;99.90;;;;;;5070696;28;20074;-52
2023/03/06 05:47:00;;;;;;;31.03;16.80;;;2.60;99.90;;;;;;5070457;28;20028;-52
2023/03/06 05:49:30;;;;;;;34.47;16.73;;;2.60;99.90;;;;;;5070581;28;20017;-53
2023/03/06 05:51:56;;;;;;;32.87;16.57;;;2.60;99.90;;;;;;5070630;28;20039;-53
2023/03/06 05:54:23;;;;;;;29.67;14.73;;;2.60;99.90;;;;;;5070419;28;20037;-52
2023/03/06 05:56:50;;;;;;;29.20;15.17;;;2.60;99.90;;;;;;5070334;28;20393;-52
2023/03/06 05:59:16;;;;;;;28.40;13.33;;;2.50;99.90;;;;;;5070563;28;20112;-53
2023/03/06 06:01:42;;;;;;;28.20;13.30;;;2.50;99.90;;;;;;5070343;28;20515;-53
2023/03/06 06:04:08;;;;;;;27.00;13.67;;;2.40;99.90;;;;;;5070219;28;20024;-49
2023/03/06 06:06:33;;;;;;;29.17;14.10;;;2.30;99.90;;;;;;5070340;28;20020;-51
2023/03/06 06:08:59;;;;;;;31.20;14.47;;;2.30;99.90;;;;;;5070397;28;20393;-51
2023/03/06 06:11:25;;;;;;;31.83;14.17;;;2.20;99.90;;;;;;5070202;28;20028;-53
2023/03/06 06:13:50;;;;;;;30.93;14.00;;;2.30;99.90;;;;;;5070153;28;20043;-52
2023/03/06 06:16:17;;;;;;;29.80;14.23;;;2.30;99.90;;;;;;5070251;28;20044;-52
2023/03/06 06:18:44;;;;;;;34.47;15.40;;;2.30;99.90;;;;;;5070114;28;20542;-52
2023/03/06 06:21:11;;;;;;;35.10;16.10;;;2.30;99.90;;;;;;5070227;28;20029;-52
2023/03/06 06:23:37;;;;;;;32.70;16.50;;;2.30;99.90;;;;;;5069888;28;20113;-53
2023/03/06 06:26:04;;;;;;;37.67;16.40;;;2.40;99.90;;;;;;5070085;28;20124;-53
2023/03/06 06:28:32;;;;;;;34.17;16.17;;;2.40;99.90;;;;;;5070029;28;20031;-51
2023/03/06 06:30:58;;;;;;;33.40;16.07;;;2.40;99.90;;;;;;5070221;28;20384;-50
2023/03/06 06:33:25;;;;;;;32.63;15.13;;;2.40;99.90;;;;;;5051935;28;20500;-53
2023/03/06 06:35:51;;;;;;;38.20;16.30;;;2.40;99.90;;;;;;5052207;28;20063;-53
2023/03/06 06:38:18;;;;;;;36.63;16.70;;;2.50;99.90;;;;;;5069880;28;20021;-52
2023/03/06 06:40:44;;;;;;;46.80;18.67;;;2.50;99.90;;;;;;5070109;28;20021;-50
2023/03/06 06:43:09;;;;;;;39.87;18.03;;;2.40;99.90;;;;;;5070251;28;20058;-51
2023/03/06 06:45:35;;;;;;;39.97;17.90;;;2.50;99.90;;;;;;5069733;28;20032;-53
2023/03/06 06:48:01;;;;;;;42.17;19.53;;;2.50;99.90;;;;;;5070025;28;20036;-49
2023/03/06 06:50:27;;;;;;;42.00;17.90;;;2.60;99.90;;;;;;5070017;28;20077;-51
2023/03/06 06:52:53;;;;;;;39.07;18.47;;;2.60;99.90;;;;;;5069871;28;20037;-52
2023/03/06 06:55:18;;;;;;;43.50;18.73;;;2.70;99.90;;;;;;5070001;28;20062;-52
2023/03/06 06:57:44;;;;;;;44.17;19.37;;;2.60;99.90;;;;;;5069702;28;20488;-53
2023/03/06 07:00:13;;;;;;;40.33;19.33;;;2.60;99.90;;;;;;5070220;28;20025;-50
2023/03/06 07:02:38;;;;;;;46.10;20.20;;;2.70;99.90;;;;;;5069847;28;20511;-48
2023/03/06 07:05:05;;;;;;;43.50;19.40;;;2.80;99.90;;;;;;5069724;28;20055;-53
2023/03/06 07:07:35;;;;;;;46.17;19.60;;;2.80;99.90;;;;;;5070023;28;20032;-54
2023/03/06 07:10:05;;;;;;;43.60;17.73;;;2.80;99.90;;;;;;5069940;28;20174;-54
2023/03/06 07:12:31;;;;;;;43.10;17.40;;;2.90;99.90;;;;;;5069875;28;20028;-55
2023/03/06 07:14:57;;;;;;;44.60;18.47;;;2.90;99.90;;;;;;5069508;28;20060;-53
2023/03/06 07:17:23;;;;;;;41.83;18.63;;;2.90;99.90;;;;;;5069491;28;20060;-53
2023/03/06 07:19:49;;;;;;;41.53;18.50;;;3.00;99.90;;;;;;5069739;28;20040;-54
2023/03/06 07:22:14;;;;;;;39.03;16.40;;;3.00;99.90;;;;;;5069657;28;20043;-50
2023/03/06 07:24:40;;;;;;;38.60;17.57;;;3.10;99.90;;;;;;5071144;28;20024;-54
2023/03/06 07:27:06;;;;;;;37.90;17.17;;;3.10;99.90;;;;;;5073033;28;20028;-52
2023/03/06 07:29:33;;;;;;;38.27;16.67;;;3.10;99.90;;;;;;5073172;28;20070;-50
2023/03/06 07:31:59;;;;;;;36.10;16.40;;;3.00;99.90;;;;;;5073266;28;20051;-52
2023/03/06 07:34:24;;;;;;;38.43;15.63;;;3.00;99.90;;;;;;5072942;28;20492;-52
2023/03/06 07:36:50;;;;;;;35.23;16.43;;;3.10;99.90;;;;;;5072766;28;20311;-55
2023/03/06 07:39:16;;;;;;;35.33;14.70;;;3.10;99.90;;;;;;5073007;28;20102;-53
2023/03/06 07:41:41;;;;;;;35.43;15.03;;;3.20;99.90;;;;;;5072856;28;20114;-51
2023/03/06 07:44:07;;;;;;;33.70;14.50;;;3.20;99.90;;;;;;5072666;28;20025;-52
2023/03/06 07:46:33;;;;;;;32.13;14.57;;;3.20;99.90;;;;;;5072728;28;20062;-52
2023/03/06 07:48:58;;;;;;;28.03;13.97;;;3.20;99.90;;;;;;5072732;28;20024;-51
2023/03/06 07:51:24;;;;;;;29.90;13.53;;;3.20;99.90;;;;;;5073055;28;20024;-51
2023/03/06 07:53:50;;;;;;;31.33;13.40;;;3.30;99.90;;;;;;5072526;28;20481;-53
2023/03/06 07:56:16;;;;;;;32.93;14.70;;;3.30;99.90;;;;;;5072706;28;20028;-51
2023/03/06 07:58:44;;;;;;;31.73;14.00;;;3.30;99.90;;;;;;5072438;28;20037;-54
2023/03/06 08:01:18;;;;;;;30.47;14.77;;;3.30;99.90;;;;;;5072557;28;20093;-51
2023/03/06 08:03:44;;;;;;;31.50;15.10;;;3.40;99.90;;;;;;5072485;28;20032;-52
2023/03/06 08:06:16;;;;;;;33.43;14.47;;;3.40;99.90;;;;;;5072489;28;20035;-52
2023/03/06 08:08:44;;;;;;;34.37;14.83;;;3.40;99.90;;;;;;5072418;28;20028;-51
2023/03/06 08:11:11;;;;;;;32.47;15.10;;;3.40;99.90;;;;;;5072557;28;20441;-51
2023/03/06 08:13:37;;;;;;;28.67;14.10;;;3.50;99.90;;;;;;5072180;28;20028;-52
2023/03/06 08:16:04;;;;;;;26.30;13.33;;;3.60;99.90;;;;;;5072215;28;20457;-53
2023/03/06 08:18:30;;;;;;;27.63;13.70;;;3.60;99.90;;;;;;5072263;28;20033;-52
2023/03/06 08:21:02;;;;;;;28.67;14.23;;;3.60;99.90;;;;;;5072325;28;20111;-53
2023/03/06 08:23:28;;;;;;;33.67;14.90;;;3.70;99.90;;;;;;5072232;28;20028;-53
2023/03/06 08:26:02;;;;;;;32.23;15.27;;;3.70;99.90;;;;;;5072034;28;20040;-54
2023/03/06 08:28:27;;;;;;;35.10;15.63;;;3.70;99.90;;;;;;5071898;28;20028;-53
2023/03/06 08:30:54;;;;;;;35.20;17.00;;;3.70;99.90;;;;;;5071820;28;20036;-49
2023/03/06 08:33:21;;;;;;;41.40;19.93;;;3.70;99.90;;;;;;5071986;28;20054;-51
2023/03/06 08:35:47;;;;;;;36.27;16.73;;;3.80;99.90;;;;;;5070846;28;20039;-51
2023/03/06 08:38:12;;;;;;;34.37;16.77;;;3.70;99.90;;;;;;5071643;28;20036;-51
2023/03/06 08:40:38;;;;;;;38.73;18.40;;;3.60;99.90;;;;;;5071827;28;20028;-51
2023/03/06 08:43:04;;;;;;;40.00;17.97;;;3.60;99.90;;;;;;5071710;28;20033;-50
2023/03/06 08:45:29;;;;;;;41.17;19.23;;;3.60;99.90;;;;;;5071167;28;20024;-52
2023/03/06 08:47:55;;;;;;;39.07;18.40;;;3.60;99.90;;;;;;5071391;28;20089;-52
2023/03/06 08:50:21;;;;;;;42.97;19.60;;;3.60;99.90;;;;;;5071690;28;20028;-53
2023/03/06 08:52:46;;;;;;;46.00;20.00;;;3.50;99.90;;;;;;5071637;28;20025;-55
2023/03/06 08:55:13;;;;;;;38.37;18.43;;;3.50;99.90;;;;;;5071313;28;20152;-51
2023/03/06 08:57:38;;;;;;;43.10;18.87;;;3.50;99.90;;;;;;5071286;28;20452;-51
2023/03/06 09:00:07;;;;;;;48.63;21.27;;;3.40;99.90;;;;;;5071177;28;20064;-51
2023/03/06 09:02:33;;;;;;;45.38;20.40;;;3.40;99.90;;;;;;5071334;28;20062;-49
2023/03/06 09:05:00;;;;;;;45.60;20.57;;;3.30;99.90;;;;;;5071104;28;20029;-48
2023/03/06 09:07:26;;;;;;;46.03;21.00;;;3.30;99.90;;;;;;5071096;28;20036;-49
2023/03/06 09:09:56;;;;;;;48.50;23.20;;;3.40;99.90;;;;;;5071218;28;20074;-49
2023/03/06 09:12:22;;;;;;;46.23;21.67;;;3.40;99.90;;;;;;5071208;28;20046;-53
2023/03/06 09:14:48;;;;;;;47.87;21.30;;;3.50;99.90;;;;;;5070973;28;20530;-54
2023/03/06 09:17:14;;;;;;;45.33;20.67;;;3.50;99.90;;;;;;5071063;28;20032;-53
2023/03/06 09:19:40;;;;;;;41.27;20.53;;;3.50;99.90;;;;;;5071078;28;20037;-55
2023/03/06 09:22:05;;;;;;;45.93;21.20;;;3.70;99.90;;;;;;5070970;28;20060;-51
2023/03/06 09:24:31;;;;;;;43.23;19.57;;;3.80;99.90;;;;;;5070864;28;20039;-53
2023/03/06 09:26:57;;;;;;;43.23;19.70;;;3.90;99.90;;;;;;5070549;28;20554;-53
2023/03/06 09:29:23;;;;;;;40.63;19.67;;;4.00;99.90;;;;;;5070746;28;20024;-49
2023/03/06 09:31:48;;;;;;;39.77;19.53;;;4.00;99.90;;;;;;5070840;28;20091;-54
2023/03/06 09:34:14;;;;;;;39.37;19.30;;;4.00;99.90;;;;;;5070749;28;20040;-51
2023/03/06 09:36:40;;;;;;;42.83;20.83;;;4.10;99.90;;;;;;5070552;28;20021;-52
2023/03/06 09:39:07;;;;;;;39.07;18.90;;;4.10;99.90;;;;;;5071107;28;20043;-53
2023/03/06 09:41:38;;;;;;;41.37;20.63;;;4.20;99.90;;;;;;5070606;28;20054;-52
2023/03/06 09:44:07;;;;;;;42.10;20.87;;;4.10;99.90;;;;;;5070805;28;20035;-54
2023/03/06 09:46:59;;;;;;;41.53;21.73;;;4.20;99.90;;;;;;5069950;28;20139;-53
2023/03/06 09:50:09;;;;;;;40.23;20.10;;;4.10;99.90;;;;;;5070669;28;20319;-51
2023/03/06 09:52:53;;;;;;;39.17;20.03;;;4.10;99.90;;;;;;5070791;28;20036;-50
2023/03/06 09:55:26;;;;;;;43.37;20.53;;;4.10;99.90;;;;;;5070300;28;20062;-52
2023/03/06 09:57:53;;;;;;;36.23;17.10;;;4.10;99.90;;;;;;5070292;28;20036;-53
2023/03/06 10:00:35;;;;;;;33.10;16.30;;;4.10;99.90;;;;;;5070451;28;20059;-54
2023/03/06 10:03:09;;;;;;;32.87;16.20;;;4.20;99.90;;;;;;5070730;28;20471;-51
2023/03/06 10:05:40;;;;;;;40.67;19.23;;;4.20;99.90;;;;;;5070483;28;20380;-51
2023/03/06 10:08:44;;;;;;;40.17;18.20;;;4.20;99.90;;;;;;5070271;28;20031;-49
2023/03/06 10:11:13;;;;;;;36.53;17.27;;;4.10;99.90;;;;;;5070083;28;20178;-54
2023/03/06 10:13:41;;;;;;;36.05;18.08;;;4.10;99.90;;;;;;5070220;28;20035;-50
2023/03/06 10:16:26;;;;;;;35.93;17.93;;;4.10;99.90;;;;;;5070562;28;20028;-55
2023/03/06 10:18:54;;;;;;;39.97;18.77;;;4.10;99.90;;;;;;5070262;28;20024;-51
2023/03/06 10:21:37;;;;;;;41.17;18.47;;;4.20;99.90;;;;;;5070127;28;20024;-52
2023/03/06 10:24:22;;;;;;;42.23;18.73;;;4.30;99.90;;;;;;5070166;28;20098;-53
2023/03/06 10:26:56;;;;;;;29.77;15.03;;;4.40;99.90;;;;;;5070110;28;20123;-50
2023/03/06 10:29:22;;;;;;;32.70;14.87;;;4.40;99.90;;;;;;5070056;28;20040;-52
2023/03/06 10:31:57;;;;;;;33.47;16.47;;;4.50;99.90;;;;;;5070257;28;20032;-54
2023/03/06 10:34:31;;;;;;;32.07;15.00;;;4.60;99.90;;;;;;5070256;28;20043;-54
2023/03/06 10:37:15;;;;;;;32.57;14.93;;;4.60;99.90;;;;;;5069923;28;20029;-53
2023/03/06 10:39:41;;;;;;;32.83;16.47;;;4.50;99.90;;;;;;5069894;28;20492;-52
2023/03/06 10:42:08;;;;;;;38.27;18.10;;;4.60;99.90;;;;;;5070011;28;20030;-52
2023/03/06 10:44:33;;;;;;;35.60;17.57;;;4.60;99.90;;;;;;5069972;28;20028;-52
2023/03/06 10:47:27;;;;;;;31.17;16.20;;;4.60;99.90;;;;;;5082468;22;20090;-50
2023/03/06 10:50:01;;;;;;;33.93;16.17;;;4.50;99.90;;;;;;5069865;28;20028;-49
2023/03/06 10:52:32;;;;;;;31.03;14.23;;;4.50;99.90;;;;;;5069890;28;20032;-51
2023/03/06 10:55:23;;;;;;;37.03;16.50;;;4.50;99.90;;;;;;5069840;28;20657;-47
2023/03/06 10:57:49;;;;;;;35.43;16.57;;;4.70;99.90;;;;;;5069419;28;20044;-48
2023/03/06 11:00:37;;;;;;;28.07;13.33;;;5.00;99.90;;;;;;5072342;28;20032;-49
2023/03/06 11:03:14;;;;;;;33.07;16.23;;;5.60;99.90;;;;;;5073518;28;20040;-48
2023/03/06 11:05:51;;;;;;;28.70;13.73;;;6.10;99.90;;;;;;5073259;28;20071;-51
2023/03/06 11:08:21;;;;;;;27.50;14.13;;;6.30;99.90;;;;;;5073573;28;20029;-51
2023/03/06 11:10:59;;;;;;;21.43;11.20;;;6.40;99.90;;;;;;5073324;28;20021;-51
2023/03/06 11:13:27;;;;;;;20.00;10.90;;;6.30;99.90;;;;;;5073170;28;20071;-50
2023/03/06 11:16:25;;;;;;;19.30;9.60;;;6.60;99.90;;;;;;5073318;28;20081;-49
2023/03/06 11:19:01;;;;;;;19.70;10.10;;;7.30;99.90;;;;;;5069051;28;20409;-51
2023/03/06 11:21:28;;;;;;;18.33;10.10;;;8.10;99.90;;;;;;5073154;28;20032;-50
2023/03/06 11:24:00;;;;;;;17.20;9.77;;;8.80;99.90;;;;;;5073112;28;20021;-52
2023/03/06 11:26:33;;;;;;;16.83;9.93;;;9.50;99.90;;;;;;5073007;28;20423;-51
2023/03/06 11:29:10;;;;;;;17.60;9.63;;;9.30;99.90;;;;;;5073119;28;20400;-49
2023/03/06 11:31:42;;;;;;;16.43;9.20;;;8.90;99.90;;;;;;5073172;28;20032;-53
2023/03/06 11:34:10;;;;;;;17.17;9.97;;;8.50;99.90;;;;;;5073207;28;20043;-47
2023/03/06 11:36:43;;;;;;;17.83;9.93;;;8.20;99.90;;;;;;5055148;28;20382;-50
2023/03/06 11:39:52;;;;;;;16.93;9.40;;;7.70;99.90;;;;;;5072851;28;20803;-54
2023/03/06 11:42:33;;;;;;;16.75;9.88;;;7.70;99.90;;;;;;5010433;28;20045;-50
2023/03/06 11:45:22;;;;;;;14.60;8.60;;;7.90;99.90;;;;;;5066814;28;20432;-48
2023/03/06 11:48:02;;;;;;;13.80;7.50;;;7.80;99.90;;;;;;5072534;28;20264;-52
2023/03/06 11:50:34;;;;;;;11.27;6.43;;;8.00;99.90;;;;;;5072490;28;20115;-50
2023/03/06 11:53:06;;;;;;;12.60;6.77;;;8.20;99.90;;;;;;5072680;28;20036;-52
2023/03/06 11:55:34;;;;;;;13.43;7.27;;;8.30;99.90;;;;;;5072661;28;20055;-51
2023/03/06 11:58:11;;;;;;;13.45;7.20;;;8.30;99.90;;;;;;5072424;28;20086;-52
2023/03/06 12:00:52;;;;;;;14.03;8.00;;;8.30;99.90;;;;;;5071829;28;20059;-52
2023/03/06 12:03:36;;;;;;;16.07;8.10;;;8.80;99.90;;;;;;5072487;28;20032;-52
2023/03/06 12:06:19;;;;;;;14.57;8.30;;;9.10;99.90;;;;;;5072679;28;20021;-50
2023/03/06 12:09:08;;;;;;;15.17;8.57;;;9.80;99.90;;;;;;5072415;28;20031;-50
2023/03/06 12:11:58;;;;;;;16.52;9.60;;;10.80;98.70;;;;;;5072258;28;20035;-52
2023/03/06 12:14:30;;;;;;;14.73;8.65;;;11.10;98.00;;;;;;5072311;28;20400;-50
2023/03/06 12:17:14;;;;;;;12.07;6.13;;;11.10;96.50;;;;;;5072163;28;20036;-53
2023/03/06 12:20:18;;;;;;;9.65;5.47;;;10.70;95.60;;;;;;5072202;28;20029;-50
2023/03/06 12:22:52;;;;;;;9.65;5.55;;;10.40;93.60;;;;;;5072077;28;20112;-52
2023/03/06 12:25:35;;;;;;;9.77;5.43;;;9.80;94.40;;;;;;5071861;28;20044;-48
2023/03/06 12:28:18;;;;;;;10.20;5.50;;;9.60;94.50;;;;;;5072054;28;20051;-51
2023/03/06 12:31:06;;;;;;;8.67;5.07;;;9.50;95.10;;;;;;5072039;28;20024;-52
2023/03/06 12:33:39;;;;;;;9.53;5.40;;;9.80;95.50;;;;;;5071845;28;20021;-53
2023/03/06 12:36:16;;;;;;;10.57;6.10;;;9.80;94.90;;;;;;5071889;28;20455;-52
2023/03/06 12:39:12;;;;;;;10.40;6.03;;;9.70;95.70;;;;;;5053504;28;20583;-51
2023/03/06 12:41:56;;;;;;;9.47;5.90;;;10.20;94.40;;;;;;5053522;28;20473;-53
2023/03/06 12:44:36;;;;;;;8.95;5.53;;;10.40;94.70;;;;;;5071484;28;20131;-48
2023/03/06 12:47:08;;;;;;;10.25;5.50;;;10.50;94.00;;;;;;5071302;28;20435;-51
2023/03/06 12:49:37;;;;;;;9.35;5.15;;;10.50;93.70;;;;;;5071531;28;20066;-50